Aérodrome :
LOGIN :

S'inscrire | Disclaimer

   EN    FR    IT 

 










Légende :    VFR   VFR Marginal   IFR   IFR Intensif   IFR Très Intensif
Visi : 
Plafond : 
>= 8 km
>= 3000ft
5 à 8 km
1000 à 3000 ft
1500m à 5 km
500 à 1000 ft
800 à 1500m
200 à 500 ft
< 800m
< 200 ft
Symboles :   Orages  Brouillard  Fortes neiges  Fortes précipitations  Vent > 20 kt
SIGMETs :   Divers  Orages  Givrage  Turbulence  Onde Orograph.  Cendres Volcan.







- Altitude de l'aérodrome : 1416 ft
- Code IATA : ZRH


LSZH - Zurich

DERNIER METAR :
  • 171420Z 26008KT 9999 FEW070 FEW072CB SCT080 BKN180 29/12 Q1016 TEMPO TSRA

METARs EXPIRÉS :
  • 171350Z 30003KT 260V350 9999 FEW065 FEW067TCU SCT210 28/13 Q1016 NOSIG
  • 171320Z VRB05KT 9999 FEW070 FEW072TCU SCT250 29/12 Q1016 NOSIG
  • 171250Z 22006KT 150V290 9999 FEW065CB SCT280 30/12 Q1016 NOSIG
  • 171220Z 24007KT 190V290 9999 FEW065TCU SCT270 29/12 Q1016 NOSIG
  • 171150Z VRB05KT 9999 FEW065TCU SCT270 29/11 Q1016 NOSIG

TAF AMD TAF LSZH
Valide du 17 à 12h jusqu'au 18 à 18h UTC


171209Z 1712/1818 22006KT 9999 FEW065TCU TX29/1714Z TN16/1804Z TX25/1814Z
TEMPO 1712/1717 29010KT
PROB40
TEMPO 1713/1720 25015G25KT TSRA FEW060CB
BECMG 1720/1723 BKN060
PROB40
TEMPO 1720/1801 SHRA
BECMG 1807/1809 01006KT
PROB30
TEMPO 1815/1818 SHRA
ATIS : +41 43 816 2295 (DEP) +41 43 816 2294 (ARR)
Pas de NOTAMs connus pour ce terrain.
1 SIGMET publié pour la FIR Switzerland (LSAS) :
 
Orages fréquents
LSAS SIGMET 1 VALID 171250/171400 LSZH
LSAS SWITZERLAND FIR FRQ TS FCST WI N4732 E00808 - N4629 E00728 - N4634 E00652 - N4729 E00731 - N4732 E00808 TOP FL330 MOV E NC=



MET'MAP, la Météo Aéronautique d'un coup d'oeil ! - Copyright ORBIFLY Décembre 2007 - Disclaimer

ORBIFLY MET'MAP TEAM :

Programmation & Développement : Alexandra Zaïnal
Conception & Développement : Baudouin d'Aumeries
Co-Programmation & Développement : Marc-Olivier Méhu
Soutien technique & logistique : Manuel Goepfert

Contact : metmap@orbifly.com




SOURCES & CREDITS :

   NOAA